createdAt,value
2022-09-20T00:00:52.581Z,4.70
2022-09-20T00:03:28.185Z,4.20
2022-09-20T00:06:13.938Z,4.00
2022-09-20T00:08:57.330Z,3.40
2022-09-20T00:11:40.356Z,3.20
2022-09-20T00:14:23.280Z,3.90
2022-09-20T00:17:06.569Z,4.00
2022-09-20T00:19:35.890Z,3.20
2022-09-20T00:22:18.720Z,3.40
2022-09-20T00:25:01.091Z,3.60
2022-09-20T00:27:46.029Z,3.50
2022-09-20T00:30:15.310Z,3.70
2022-09-20T00:32:58.207Z,4.00
2022-09-20T00:35:28.343Z,3.50
2022-09-20T00:37:58.090Z,3.90
2022-09-20T00:40:27.786Z,3.60
2022-09-20T00:42:56.945Z,3.40
2022-09-20T00:45:39.726Z,3.80
2022-09-20T00:48:30.981Z,3.30
2022-09-20T00:51:18.271Z,3.40
2022-09-20T00:54:04.710Z,3.90
2022-09-20T00:56:47.547Z,3.60
2022-09-20T00:59:35.769Z,3.50
2022-09-20T01:02:09.221Z,3.70
2022-09-20T01:04:41.629Z,3.60
2022-09-20T01:07:25.047Z,3.60
2022-09-20T01:10:08.095Z,3.80
2022-09-20T01:12:54.356Z,4.30
2022-09-20T01:15:39.973Z,3.90
2022-09-20T01:18:10.508Z,3.50
2022-09-20T01:20:53.185Z,3.50
2022-09-20T01:23:25.706Z,3.90
2022-09-20T01:26:39.751Z,3.60
2022-09-20T01:29:18.481Z,4.00
2022-09-20T01:31:53.845Z,3.40
2022-09-20T01:34:35.407Z,4.00
2022-09-20T01:37:28.909Z,3.80
2022-09-20T01:40:04.570Z,3.40
2022-09-20T01:42:59.063Z,3.20
2022-09-20T01:45:31.215Z,3.70
2022-09-20T01:48:36.323Z,3.60
2022-09-20T01:51:38.101Z,3.60
2022-09-20T01:55:06.205Z,3.90
2022-09-20T01:58:13.524Z,3.70
2022-09-20T02:01:04.424Z,3.90
2022-09-20T02:03:36.742Z,3.90
2022-09-20T02:06:57.458Z,3.20
2022-09-20T02:09:45.391Z,3.80
2022-09-20T02:12:23.449Z,3.90
2022-09-20T02:15:29.965Z,4.10
2022-09-20T02:18:31.323Z,3.20
2022-09-20T02:21:19.576Z,3.10
2022-09-20T02:24:26.531Z,2.90
2022-09-20T02:27:23.169Z,3.50
2022-09-20T02:30:23.980Z,3.30
2022-09-20T02:33:45.062Z,4.10
2022-09-20T02:36:59.593Z,3.80
2022-09-20T02:39:43.517Z,3.30
2022-09-20T02:42:47.578Z,3.10
2022-09-20T02:46:02.807Z,3.10
2022-09-20T02:48:46.021Z,3.50
2022-09-20T02:51:24.983Z,3.80
2022-09-20T02:54:05.452Z,4.00
2022-09-20T02:57:17.541Z,3.30
2022-09-20T03:00:10.043Z,3.60
2022-09-20T03:03:14.652Z,3.60
2022-09-20T03:06:04.708Z,3.70
2022-09-20T03:09:17.946Z,4.60
2022-09-20T03:12:49.821Z,3.60
2022-09-20T03:19:02.262Z,3.10
2022-09-20T03:21:53.026Z,3.40
2022-09-20T03:24:41.728Z,3.70
2022-09-20T03:27:48.590Z,3.30
2022-09-20T03:30:53.216Z,2.80
2022-09-20T03:33:59.692Z,2.60
2022-09-20T03:36:50.923Z,3.10
2022-09-20T03:39:44.892Z,3.40
2022-09-20T03:42:30.085Z,3.00
2022-09-20T03:45:26.885Z,3.90
2022-09-20T03:47:56.335Z,4.00
2022-09-20T03:50:28.596Z,3.10
2022-09-20T03:53:16.327Z,3.20
2022-09-20T03:56:07.748Z,3.20
2022-09-20T03:59:22.093Z,3.50
2022-09-20T04:02:07.909Z,3.10
2022-09-20T04:04:56.343Z,3.60
2022-09-20T04:07:25.043Z,3.60
2022-09-20T04:10:32.063Z,3.70
2022-09-20T04:14:01.642Z,2.90
2022-09-20T04:16:31.049Z,3.40
2022-09-20T04:19:32.899Z,3.50
2022-09-20T04:22:16.456Z,4.10
2022-09-20T04:25:03.000Z,3.50
2022-09-20T04:27:44.510Z,3.20
2022-09-20T04:30:21.690Z,3.50
2022-09-20T04:33:15.512Z,3.00
2022-09-20T04:36:35.995Z,3.40
2022-09-20T04:39:14.693Z,3.10
2022-09-20T04:42:11.023Z,3.00
2022-09-20T04:45:33.336Z,3.00
2022-09-20T04:48:54.916Z,3.50
2022-09-20T04:51:41.826Z,2.70
2022-09-20T04:54:30.068Z,2.90
2022-09-20T04:57:33.188Z,2.90
2022-09-20T05:00:14.569Z,3.20
2022-09-20T05:03:04.063Z,3.50
2022-09-20T05:05:41.305Z,3.90
2022-09-20T05:09:05.695Z,3.90
2022-09-20T05:12:12.515Z,3.20
2022-09-20T05:15:01.178Z,4.30
2022-09-20T05:17:48.597Z,3.20
2022-09-20T05:20:47.426Z,3.20
2022-09-20T05:23:32.680Z,3.10
2022-09-20T05:26:10.308Z,3.20
2022-09-20T05:28:50.470Z,3.10
2022-09-20T05:31:44.612Z,2.90
2022-09-20T05:34:18.755Z,4.20
2022-09-20T05:37:08.305Z,4.50
2022-09-20T05:40:07.716Z,4.30
2022-09-20T05:45:51.104Z,3.80
2022-09-20T05:48:21.062Z,3.50
2022-09-20T05:54:55.376Z,2.80
2022-09-20T05:58:06.654Z,2.40
2022-09-20T06:00:48.866Z,3.20
2022-09-20T06:03:37.658Z,2.90
2022-09-20T06:06:16.170Z,3.30
2022-09-20T06:09:13.088Z,3.70
2022-09-20T06:12:04.341Z,2.90
2022-09-20T06:15:07.127Z,3.10
2022-09-20T06:17:50.328Z,3.60
2022-09-20T06:20:33.810Z,3.40
2022-09-20T06:23:06.302Z,3.50
2022-09-20T06:25:45.982Z,2.40
2022-09-20T06:28:19.347Z,2.90
2022-09-20T06:30:53.911Z,2.90
2022-09-20T06:34:03.684Z,2.80
2022-09-20T06:36:56.803Z,3.10
2022-09-20T06:40:00.174Z,2.90
2022-09-20T06:42:30.302Z,3.10
2022-09-20T06:44:59.636Z,3.00
2022-09-20T06:47:29.665Z,3.30
2022-09-20T06:50:00.396Z,3.00
2022-09-20T06:52:29.948Z,3.20
2022-09-20T06:54:59.105Z,3.20
2022-09-20T06:57:36.346Z,2.80
2022-09-20T07:00:11.687Z,3.00
2022-09-20T07:02:40.491Z,3.00
2022-09-20T07:05:22.723Z,2.90
2022-09-20T07:07:58.042Z,3.30
2022-09-20T07:10:28.383Z,2.60
2022-09-20T07:13:02.307Z,2.50
2022-09-20T07:15:33.632Z,2.90
2022-09-20T07:18:16.313Z,2.40
2022-09-20T07:21:01.402Z,1.90
2022-09-20T07:23:31.742Z,2.80
2022-09-20T07:26:01.465Z,2.10
2022-09-20T07:28:33.007Z,2.30
2022-09-20T07:31:02.126Z,2.30
2022-09-20T07:33:32.086Z,2.40
2022-09-20T07:36:02.086Z,2.40
2022-09-20T07:38:31.274Z,2.20
2022-09-20T07:41:02.664Z,2.30
2022-09-20T07:43:32.691Z,2.20
2022-09-20T07:46:02.139Z,2.30
2022-09-20T07:48:34.571Z,1.90
2022-09-20T07:51:17.684Z,2.60
2022-09-20T07:53:46.699Z,2.30
2022-09-20T07:56:29.407Z,2.40
2022-09-20T07:58:58.754Z,2.00
2022-09-20T08:01:42.483Z,2.10
2022-09-20T08:04:11.981Z,2.10
2022-09-20T08:06:44.459Z,1.90
2022-09-20T08:09:14.551Z,1.70
2022-09-20T08:11:58.387Z,1.60
2022-09-20T08:14:27.390Z,1.70
2022-09-20T08:17:02.249Z,2.10
2022-09-20T08:19:31.296Z,1.90
2022-09-20T08:22:14.177Z,1.90
2022-09-20T08:24:44.859Z,1.40
2022-09-20T08:27:27.159Z,2.10
2022-09-20T08:30:10.647Z,1.60
2022-09-20T08:32:54.236Z,2.00
2022-09-20T08:35:38.530Z,1.20
2022-09-20T08:41:19.329Z,1.00
2022-09-20T08:43:56.425Z,1.70
2022-09-20T08:46:50.385Z,1.10
2022-09-20T08:49:30.313Z,1.20
2022-09-20T08:52:19.834Z,1.20
2022-09-20T08:55:07.442Z,1.00
2022-09-20T08:57:54.449Z,1.10
2022-09-20T09:00:32.768Z,1.00
2022-09-20T09:03:07.189Z,1.20
2022-09-20T09:05:55.511Z,0.90
2022-09-20T09:08:29.210Z,0.90
2022-09-20T09:11:09.068Z,1.00
2022-09-20T09:14:02.224Z,0.70
2022-09-20T09:16:35.780Z,0.70
2022-09-20T09:19:44.113Z,1.10
2022-09-20T09:22:37.794Z,0.90
2022-09-20T09:25:22.279Z,0.80
2022-09-20T09:27:59.631Z,1.00
2022-09-20T09:30:32.197Z,1.00
2022-09-20T09:33:20.397Z,2.00
2022-09-20T09:36:15.430Z,0.60
2022-09-20T09:38:46.425Z,0.50
2022-09-20T09:41:26.540Z,0.90
2022-09-20T09:44:21.385Z,0.70
2022-09-20T09:47:04.187Z,0.70
2022-09-20T09:50:09.819Z,0.80
2022-09-20T09:52:39.658Z,1.10
2022-09-20T09:55:24.112Z,0.60
2022-09-20T09:58:13.394Z,0.70
2022-09-20T10:00:59.896Z,0.40
2022-09-20T10:03:49.044Z,0.40
2022-09-20T10:06:18.822Z,0.50
2022-09-20T10:09:39.541Z,1.00
2022-09-20T10:12:19.890Z,0.80
2022-09-20T10:15:19.453Z,0.70
2022-09-20T10:17:58.158Z,0.50
2022-09-20T10:20:43.586Z,0.50
2022-09-20T10:24:02.128Z,0.80
2022-09-20T10:26:59.865Z,0.60
2022-09-20T10:29:53.394Z,0.90
2022-09-20T10:32:50.487Z,0.50
2022-09-20T10:36:14.496Z,0.90
2022-09-20T10:38:50.006Z,1.10
2022-09-20T10:42:16.269Z,0.80
2022-09-20T10:44:58.243Z,0.70
2022-09-20T10:47:34.707Z,1.00
2022-09-20T10:50:18.761Z,1.70
2022-09-20T10:53:26.481Z,0.50
2022-09-20T10:56:32.001Z,0.60
2022-09-20T10:59:19.300Z,0.50
2022-09-20T11:01:58.964Z,0.50
2022-09-20T11:04:46.625Z,0.50
2022-09-20T11:07:22.694Z,0.40
2022-09-20T11:12:51.686Z,0.50
2022-09-20T11:15:41.940Z,0.80
2022-09-20T11:18:23.814Z,0.50
2022-09-20T11:21:20.960Z,0.60
2022-09-20T11:24:03.077Z,0.40
2022-09-20T11:26:38.237Z,0.40
2022-09-20T11:29:19.936Z,0.40
2022-09-20T11:31:54.914Z,0.40
2022-09-20T11:34:32.512Z,0.40
2022-09-20T11:37:03.546Z,0.40
2022-09-20T11:40:01.596Z,0.30
2022-09-20T11:42:37.226Z,0.50
2022-09-20T11:45:06.467Z,0.30
2022-09-20T11:47:55.273Z,0.30
2022-09-20T11:51:16.055Z,0.60
2022-09-20T11:54:07.284Z,0.30
2022-09-20T11:56:36.327Z,0.50
2022-09-20T11:59:28.786Z,0.30
2022-09-20T12:02:00.943Z,1.30
2022-09-20T12:04:35.185Z,0.30
2022-09-20T12:07:26.696Z,0.90
2022-09-20T12:10:05.727Z,0.20
2022-09-20T12:12:44.448Z,0.20
2022-09-20T12:15:25.245Z,0.50
2022-09-20T12:17:53.998Z,0.40
2022-09-20T12:23:58.102Z,0.40
2022-09-20T12:26:40.477Z,0.40
2022-09-20T12:29:29.773Z,0.40
2022-09-20T12:32:01.862Z,0.60
2022-09-20T12:34:36.994Z,0.30
2022-09-20T12:37:05.539Z,0.70
2022-09-20T12:39:39.193Z,0.50
2022-09-20T12:42:10.778Z,0.30
2022-09-20T12:45:18.371Z,0.30
2022-09-20T12:48:00.828Z,0.40
2022-09-20T12:50:48.320Z,0.40
2022-09-20T12:53:17.330Z,0.70
2022-09-20T12:55:55.251Z,0.60
2022-09-20T12:58:32.879Z,0.40
2022-09-20T13:01:04.997Z,0.40
2022-09-20T13:03:48.536Z,0.30
2022-09-20T13:06:20.187Z,0.60
2022-09-20T13:09:09.708Z,0.40
2022-09-20T13:11:57.280Z,0.30
2022-09-20T13:14:32.470Z,0.60
2022-09-20T13:17:14.948Z,0.70
2022-09-20T13:19:50.263Z,0.60
2022-09-20T13:22:43.657Z,0.80
2022-09-20T13:25:15.996Z,0.70
2022-09-20T13:28:04.345Z,0.70
2022-09-20T13:30:33.680Z,1.10
2022-09-20T13:33:25.765Z,1.00
2022-09-20T13:35:58.931Z,1.60
2022-09-20T13:38:32.210Z,2.10
2022-09-20T13:41:08.364Z,1.60
2022-09-20T13:43:52.347Z,2.00
2022-09-20T13:46:32.267Z,2.00
2022-09-20T13:49:23.894Z,1.40
2022-09-20T13:51:52.713Z,1.70
2022-09-20T13:54:33.056Z,0.90
2022-09-20T13:57:23.424Z,1.20
2022-09-20T13:59:53.164Z,0.90
2022-09-20T14:02:31.098Z,0.80
2022-09-20T14:05:02.229Z,0.80
2022-09-20T14:07:32.486Z,1.20
2022-09-20T14:10:01.540Z,0.70
2022-09-20T14:12:30.741Z,1.20
2022-09-20T14:15:16.328Z,1.60
2022-09-20T14:17:45.917Z,1.60
2022-09-20T14:20:17.492Z,0.70
2022-09-20T14:23:00.891Z,1.40
2022-09-20T14:25:29.878Z,0.80
2022-09-20T14:28:19.256Z,1.20
2022-09-20T14:30:48.855Z,1.50
2022-09-20T14:33:21.488Z,1.90
2022-09-20T14:35:52.260Z,1.90
2022-09-20T14:38:26.737Z,1.70
2022-09-20T14:41:04.449Z,1.50
2022-09-20T14:43:35.808Z,1.80
2022-09-20T14:46:18.619Z,1.70
2022-09-20T14:48:47.879Z,1.40
2022-09-20T14:51:30.386Z,1.30
2022-09-20T14:54:05.281Z,1.80
2022-09-20T14:56:37.447Z,1.40
2022-09-20T14:59:14.086Z,1.10
2022-09-20T15:01:47.228Z,1.00
2022-09-20T15:04:33.081Z,0.80
2022-09-20T15:07:08.568Z,0.80
2022-09-20T15:09:37.826Z,0.90
2022-09-20T15:12:14.384Z,0.90
2022-09-20T15:14:44.944Z,0.80
2022-09-20T15:17:19.794Z,0.70
2022-09-20T15:19:50.557Z,1.00
2022-09-20T15:22:19.371Z,0.80
2022-09-20T15:24:48.485Z,0.80
2022-09-20T15:27:31.461Z,0.70
2022-09-20T15:30:00.608Z,0.70
2022-09-20T15:32:29.705Z,0.80
2022-09-20T15:34:59.034Z,0.80
2022-09-20T15:37:27.980Z,1.00
2022-09-20T15:39:57.232Z,1.20
2022-09-20T15:42:26.125Z,0.80
2022-09-20T15:45:10.546Z,1.00
2022-09-20T15:47:40.370Z,1.00
2022-09-20T15:50:10.066Z,0.80
2022-09-20T15:52:42.168Z,1.10
2022-09-20T15:55:12.470Z,0.80
2022-09-20T15:57:48.313Z,1.30
2022-09-20T16:00:22.556Z,1.20
2022-09-20T16:02:51.630Z,1.20
2022-09-20T16:05:34.033Z,1.40
2022-09-20T16:08:03.236Z,1.40
2022-09-20T16:10:33.080Z,0.90
2022-09-20T16:13:01.672Z,1.50
2022-09-20T16:15:30.871Z,1.50
2022-09-20T16:18:18.352Z,1.00
2022-09-20T16:20:47.215Z,1.10
2022-09-20T16:23:29.860Z,0.80
2022-09-20T16:25:58.728Z,1.00
2022-09-20T16:28:28.531Z,1.00
2022-09-20T16:30:58.501Z,1.20
2022-09-20T16:33:27.523Z,1.30
2022-09-20T16:35:56.928Z,0.90
2022-09-20T16:38:26.602Z,1.40
2022-09-20T16:41:09.408Z,1.20
2022-09-20T16:43:38.371Z,1.20
2022-09-20T16:46:07.540Z,1.10
2022-09-20T16:48:54.924Z,1.40
2022-09-20T16:51:26.686Z,1.80
2022-09-20T16:54:14.754Z,1.50
2022-09-20T16:56:48.978Z,1.50
2022-09-20T16:59:22.048Z,1.60
2022-09-20T17:01:51.858Z,1.70
2022-09-20T17:04:21.715Z,1.90
2022-09-20T17:07:04.405Z,2.60
2022-09-20T17:09:36.170Z,4.10
2022-09-20T17:12:12.618Z,4.80
2022-09-20T17:14:49.584Z,4.60
2022-09-20T17:17:27.116Z,4.20
2022-09-20T17:20:07.145Z,3.50
2022-09-20T17:22:44.206Z,3.30
2022-09-20T17:25:19.655Z,4.80
2022-09-20T17:27:55.295Z,5.20
2022-09-20T17:30:33.451Z,5.40
2022-09-20T17:37:01.865Z,3.60
2022-09-20T17:39:30.784Z,3.80
2022-09-20T17:41:59.788Z,4.70
2022-09-20T17:44:42.385Z,4.30
2022-09-20T17:47:12.413Z,4.10
2022-09-20T17:49:41.093Z,3.20
2022-09-20T17:52:11.374Z,3.90
2022-09-20T17:54:40.487Z,3.80
2022-09-20T17:57:08.916Z,3.90
2022-09-20T17:59:37.478Z,3.20
2022-09-20T18:02:20.117Z,4.00
2022-09-20T18:05:17.186Z,3.10
2022-09-20T18:07:52.292Z,3.10
2022-09-20T18:10:21.574Z,3.10
2022-09-20T18:12:51.603Z,3.60
2022-09-20T18:15:20.903Z,3.40
2022-09-20T18:17:54.416Z,3.10
2022-09-20T18:20:23.550Z,3.50
2022-09-20T18:22:52.978Z,2.80
2022-09-20T18:25:24.556Z,2.40
2022-09-20T18:27:54.306Z,3.40
2022-09-20T18:30:23.120Z,2.90
2022-09-20T18:32:52.872Z,4.10
2022-09-20T18:35:21.530Z,3.70
2022-09-20T18:37:50.160Z,4.00
2022-09-20T18:40:18.913Z,4.20
2022-09-20T18:43:00.204Z,4.30
2022-09-20T18:45:32.563Z,5.30
2022-09-20T18:48:02.089Z,5.50
2022-09-20T18:50:30.811Z,5.50
2022-09-20T18:52:59.657Z,5.40
2022-09-20T18:55:29.276Z,5.40
2022-09-20T18:58:01.529Z,5.90
2022-09-20T19:00:31.327Z,5.30
2022-09-20T19:03:12.096Z,5.50
2022-09-20T19:05:53.138Z,4.20
2022-09-20T19:08:38.355Z,4.20
2022-09-20T19:11:16.855Z,3.60
2022-09-20T19:14:01.079Z,4.20
2022-09-20T19:16:35.404Z,4.40
2022-09-20T19:19:04.068Z,4.60
2022-09-20T19:21:46.300Z,4.00
2022-09-20T19:24:47.643Z,3.90
2022-09-20T19:27:16.611Z,3.90
2022-09-20T19:29:49.226Z,3.90
2022-09-20T19:32:21.985Z,4.10
2022-09-20T19:34:52.420Z,4.00
2022-09-20T19:37:58.999Z,4.00
2022-09-20T19:40:46.747Z,5.10
2022-09-20T19:43:53.435Z,4.50
2022-09-20T19:47:11.168Z,4.40
2022-09-20T19:50:04.004Z,3.60
2022-09-20T19:52:33.516Z,4.50
2022-09-20T19:55:03.088Z,4.10
2022-09-20T19:57:47.664Z,4.30
2022-09-20T20:00:19.588Z,4.80
2022-09-20T20:02:49.852Z,3.90
2022-09-20T20:05:21.229Z,4.60
2022-09-20T20:07:59.073Z,4.00
2022-09-20T20:10:54.989Z,4.70
2022-09-20T20:13:56.727Z,5.20
2022-09-20T20:16:38.640Z,4.70
2022-09-20T20:19:16.910Z,4.40
2022-09-20T20:22:23.393Z,4.70
2022-09-20T20:25:18.211Z,4.30
2022-09-20T20:27:47.806Z,5.20
2022-09-20T20:30:17.925Z,4.80
2022-09-20T20:32:48.952Z,4.10
2022-09-20T20:35:20.179Z,3.60
2022-09-20T20:37:50.392Z,3.70
2022-09-20T20:40:20.015Z,4.00
2022-09-20T20:43:02.730Z,4.70
2022-09-20T20:45:51.395Z,3.60
2022-09-20T20:48:20.624Z,4.70
2022-09-20T20:51:12.214Z,4.00
2022-09-20T20:53:47.374Z,3.50
2022-09-20T20:56:19.577Z,3.90
2022-09-20T20:58:49.618Z,3.90
2022-09-20T21:01:21.649Z,3.60
2022-09-20T21:03:53.472Z,4.20
2022-09-20T21:06:25.331Z,4.10
2022-09-20T21:08:54.355Z,4.20
2022-09-20T21:11:33.330Z,4.10
2022-09-20T21:14:07.080Z,3.60
2022-09-20T21:16:38.781Z,3.50
2022-09-20T21:19:10.236Z,4.40
2022-09-20T21:21:42.331Z,3.60
2022-09-20T21:24:24.618Z,3.70
2022-09-20T21:26:54.117Z,4.10
2022-09-20T21:29:23.097Z,3.90
2022-09-20T21:31:52.141Z,3.40
2022-09-20T21:34:21.101Z,3.20
2022-09-20T21:37:03.475Z,3.80
2022-09-20T21:39:32.684Z,3.40
2022-09-20T21:42:01.700Z,3.70
2022-09-20T21:44:30.871Z,3.70
2022-09-20T21:46:59.662Z,3.60
2022-09-20T21:49:29.094Z,3.50
2022-09-20T21:51:57.747Z,3.90
2022-09-20T21:54:40.914Z,3.50
2022-09-20T21:57:14.148Z,3.20
2022-09-20T21:59:43.536Z,3.30
2022-09-20T22:02:12.722Z,3.20
2022-09-20T22:04:41.462Z,4.00
2022-09-20T22:07:10.335Z,4.20
2022-09-20T22:09:40.608Z,4.20
2022-09-20T22:12:09.778Z,4.20
2022-09-20T22:14:40.563Z,3.90
2022-09-20T22:17:10.183Z,4.00
2022-09-20T22:19:40.673Z,3.50
2022-09-20T22:22:09.866Z,5.00
2022-09-20T22:24:38.790Z,3.60
2022-09-20T22:27:07.467Z,4.20
2022-09-20T22:29:36.109Z,4.30
2022-09-20T22:32:04.894Z,4.90
2022-09-20T22:34:33.685Z,4.70
2022-09-20T22:37:18.085Z,4.40
2022-09-20T22:39:46.748Z,4.50
2022-09-20T22:42:15.646Z,4.30
2022-09-20T22:44:44.890Z,4.60
2022-09-20T22:47:13.734Z,4.70
2022-09-20T22:49:42.518Z,4.20
2022-09-20T22:52:11.293Z,5.00
2022-09-20T22:54:40.208Z,4.50
2022-09-20T22:57:08.838Z,4.50
2022-09-20T22:59:51.429Z,4.40
2022-09-20T23:02:20.201Z,4.10
2022-09-20T23:04:49.602Z,4.10
2022-09-20T23:07:32.215Z,4.60
2022-09-20T23:10:00.855Z,4.40
2022-09-20T23:12:30.413Z,3.30
2022-09-20T23:14:59.718Z,3.80
2022-09-20T23:17:29.215Z,3.70
2022-09-20T23:19:58.519Z,4.10
2022-09-20T23:22:40.781Z,4.30
2022-09-20T23:25:10.425Z,4.20
2022-09-20T23:27:39.752Z,4.00
2022-09-20T23:30:08.980Z,3.70
2022-09-20T23:32:38.555Z,3.50
2022-09-20T23:35:21.066Z,4.00
2022-09-20T23:37:50.169Z,4.00
2022-09-20T23:40:18.928Z,3.70
2022-09-20T23:42:47.834Z,3.00
2022-09-20T23:45:30.698Z,4.10
2022-09-20T23:47:59.473Z,3.80
2022-09-20T23:50:28.105Z,3.30
2022-09-20T23:52:56.965Z,3.50
2022-09-20T23:55:26.129Z,3.90
2022-09-20T23:57:57.718Z,3.70
